^^
Saratoga-Weather Station Historical Data
Daily Summary for January 3, 2020 Units:  Metric    English   Both
Daily Weekly Monthly Yearly Custom
  High: Low: Average:
Temperature: 13.6 °C 10 °C 11.2 °C
Dew Point: 12.8 °C 9 °C 10 °C
Humidity: 95% 83% 93%
Wind Speed: 13km/h 0km/h 2.7km/h
Wind Gust: 20.9km/h - -
Wind- - SSE
Pressure: 992.5 hPa 986.5 hPa -
Precipitation: 9.4 mm    
Historical Graphs
 
 
Tabular Data for January 3, 2020
Time Temperature Dew Point Pressure Wind Wind Speed Wind Gust Humidity Rainfall Rate (Hourly) solar
00:02 13.5 °C 12.7 °C 987.8 hPa NW 6.4 km/h 8 km/h 95% 0.0 mm 0 W/m2
00:07 13.6 °C 12.8 °C 987.5 hPa WNW 13 km/h 12.9 km/h 95% 0.0 mm 0 W/m2
00:12 13.6 °C 12.8 °C 987.5 hPa NNW 4.7 km/h 9.7 km/h 95% 0.0 mm 0 W/m2
00:17 13.5 °C 12.7 °C 987.5 hPa WNW 9.7 km/h 14.5 km/h 95% 0.0 mm 0 W/m2
00:22 13.5 °C 12.7 °C 987.1 hPa West 9.7 km/h 12.9 km/h 95% 0.0 mm 0 W/m2
00:27 13.4 °C 12.5 °C 987.1 hPa NW 7.9 km/h 14.5 km/h 94% 0.0 mm 0 W/m2
00:32 13.4 °C 12.5 °C 986.8 hPa NNW 6.4 km/h 11.3 km/h 94% 0.0 mm 0 W/m2
00:37 13.3 °C 12.4 °C 986.8 hPa WNW 11.1 km/h 11.3 km/h 94% 0.0 mm 0 W/m2
00:42 13.3 °C 12.4 °C 986.8 hPa West 6.4 km/h 11.3 km/h 94% 0.0 mm 0 W/m2
00:47 13.2 °C 12.3 °C 986.8 hPa WNW 7.9 km/h 12.9 km/h 94% 0.0 mm 0 W/m2
00:52 13.2 °C 12.3 °C 987.1 hPa WNW 6.4 km/h 17.7 km/h 94% 0.0 mm 0 W/m2
00:57 13.1 °C 12.3 °C 987.1 hPa West 11.1 km/h 12.9 km/h 95% 0.0 mm 0 W/m2
01:02 13.1 °C 12.2 °C 987.1 hPa WNW 11.1 km/h 11.3 km/h 94% 0.0 mm 0 W/m2
01:07 13 °C 12.1 °C 986.8 hPa West 11.1 km/h 11.3 km/h 94% 0.0 mm 0 W/m2
01:12 12.9 °C 12 °C 986.5 hPa WSW 4.7 km/h 9.7 km/h 94% 0.0 mm 0 W/m2
01:17 12.8 °C 11.9 °C 986.5 hPa WNW 3.2 km/h 4.8 km/h 94% 0.0 mm 0 W/m2
01:22 12.8 °C 11.9 °C 986.5 hPa WNW 1.4 km/h 3.2 km/h 94% 0.0 mm 0 W/m2
01:27 12.7 °C 11.8 °C 986.8 hPa WNW 1.4 km/h 3.2 km/h 94% 0.0 mm 0 W/m2
01:32 12.6 °C 11.7 °C 987.1 hPa Calm   1.6 km/h 94% 0.0 mm 0 W/m2
01:37 12.5 °C 11.7 °C 987.1 hPa Calm   3.2 km/h 95% 0.0 mm 0 W/m2
01:42 12.4 °C 11.6 °C 986.8 hPa NW 4.7 km/h 6.4 km/h 95% 0.0 mm 0 W/m2
01:47 12.4 °C 11.6 °C 986.5 hPa NW 1.4 km/h 3.2 km/h 95% 0.0 mm 0 W/m2
01:52 12.4 °C 11.5 °C 986.5 hPa NW 1.4 km/h 3.2 km/h 94% 0.0 mm 0 W/m2
01:57 12.3 °C 11.4 °C 987.5 hPa WNW 4.7 km/h 9.7 km/h 94% 0.0 mm 0 W/m2
02:02 12.3 °C 11.4 °C 987.8 hPa West 1.4 km/h 9.7 km/h 94% 0.0 mm 0 W/m2
02:07 12.2 °C 11.3 °C 987.8 hPa NNW 4.7 km/h 11.3 km/h 94% 0.0 mm 0 W/m2
02:13 12.2 °C 11.3 °C 987.8 hPa NW 11.1 km/h 12.9 km/h 94% 0.0 mm 0 W/m2
02:18 12.1 °C 11.2 °C 987.8 hPa NW 4.7 km/h 6.4 km/h 94% 0.0 mm 0 W/m2
02:23 12.1 °C 11.2 °C 988.1 hPa North 1.4 km/h 14.5 km/h 94% 0.0 mm 0 W/m2
02:28 12 °C 11.1 °C 987.8 hPa NNE 6.4 km/h 6.4 km/h 94% 0.0 mm 0 W/m2
02:33 11.9 °C 11 °C 987.5 hPa West 4.7 km/h 14.5 km/h 94% 0.0 mm 0 W/m2
02:38 11.9 °C 11 °C 987.8 hPa WSW 4.7 km/h 12.9 km/h 94% 0.0 mm 0 W/m2
02:43 11.8 °C 10.7 °C 988.1 hPa West 3.2 km/h 8 km/h 93% 0.0 mm 0 W/m2
02:48 11.8 °C 10.7 °C 988.1 hPa SSW 4.7 km/h 11.3 km/h 93% 0.0 mm 0 W/m2
02:53 11.8 °C 10.7 °C 988.1 hPa WNW 6.4 km/h 12.9 km/h 93% 0.0 mm 0 W/m2
02:58 11.8 °C 10.7 °C 988.1 hPa WSW 6.4 km/h 16.1 km/h 93% 0.0 mm 0 W/m2
03:03 11.8 °C 10.7 °C 988.5 hPa NW 6.4 km/h 11.3 km/h 93% 0.0 mm 0 W/m2
03:08 11.8 °C 10.7 °C 988.5 hPa WNW 1.4 km/h 16.1 km/h 93% 0.0 mm 0 W/m2
03:13 11.8 °C 10.7 °C 988.5 hPa Calm   9.7 km/h 93% 0.0 mm 0 W/m2
03:18 11.7 °C 10.8 °C 988.8 hPa Calm   1.6 km/h 94% 0.0 mm 0 W/m2
03:23 11.7 °C 10.8 °C 988.5 hPa NW 3.2 km/h 6.4 km/h 94% 0.0 mm 0 W/m2
03:28 11.7 °C 10.8 °C 988.5 hPa WNW 4.7 km/h 8 km/h 94% 0.0 mm 0 W/m2
03:33 11.7 °C 10.8 °C 988.1 hPa West 4.7 km/h 6.4 km/h 94% 0.0 mm 0 W/m2
03:38 11.7 °C 10.8 °C 988.5 hPa SW 1.4 km/h 4.8 km/h 94% 0.0 mm 0 W/m2
03:43 11.7 °C 10.8 °C 988.8 hPa Calm   6.4 km/h 94% 0.0 mm 0 W/m2
03:48 11.7 °C 10.8 °C 989.2 hPa SE 3.2 km/h 4.8 km/h 94% 0.0 mm 0 W/m2
03:53 11.7 °C 10.8 °C 989.2 hPa Calm     94% 0.0 mm 0 W/m2
03:58 11.7 °C 10.8 °C 989.2 hPa Calm     94% 0.0 mm 0 W/m2
04:03 11.6 °C 10.7 °C 989.2 hPa Calm   3.2 km/h 94% 0.0 mm 0 W/m2
04:08 11.6 °C 10.7 °C 988.8 hPa Calm   4.8 km/h 94% 0.0 mm 0 W/m2
04:13 11.6 °C 10.7 °C 988.8 hPa Calm     94% 0.2 mm 0 W/m2
04:18 11.6 °C 10.7 °C 988.8 hPa Calm   3.2 km/h 94% 0.2 mm 0 W/m2
04:23 11.5 °C 10.6 °C 988.8 hPa NW 1.4 km/h 1.6 km/h 94% 0.2 mm 0 W/m2
04:28 11.4 °C 10.6 °C 988.8 hPa Calm   1.6 km/h 95% 0.5 mm 0 W/m2
04:33 11.4 °C 10.6 °C 988.5 hPa West 4.7 km/h 4.8 km/h 95% 0.5 mm 0 W/m2
04:38 11.4 °C 10.6 °C 988.8 hPa WNW 3.2 km/h 3.2 km/h 95% 0.5 mm 0 W/m2
04:43 11.4 °C 10.6 °C 988.8 hPa NW 1.4 km/h 4.8 km/h 95% 0.5 mm 0 W/m2
04:48 11.3 °C 10.5 °C 988.1 hPa NNW 1.4 km/h 1.6 km/h 95% 0.5 mm 0 W/m2
04:53 11.3 °C 10.4 °C 988.1 hPa WNW 3.2 km/h 11.3 km/h 94% 0.5 mm 0 W/m2
04:58 11.2 °C 10.3 °C 988.1 hPa West 3.2 km/h 6.4 km/h 94% 0.5 mm 0 W/m2
05:03 11.2 °C 10.3 °C 988.5 hPa WNW 1.4 km/h 11.3 km/h 94% 0.5 mm 0 W/m2
05:08 11.1 °C 10.2 °C 988.5 hPa Calm   1.6 km/h 94% 0.5 mm 0 W/m2
05:13 11.1 °C 10.2 °C 988.5 hPa NW 1.4 km/h 3.2 km/h 94% 0.2 mm 0 W/m2
05:18 11 °C 10.1 °C 988.8 hPa North 1.4 km/h 4.8 km/h 94% 0.2 mm 0 W/m2
05:23 10.9 °C 10 °C 989.2 hPa Calm   1.6 km/h 94% 0.2 mm 0 W/m2
05:28 10.9 °C 10 °C 989.2 hPa Calm     94% 0.0 mm 0 W/m2
05:33 10.9 °C 10 °C 989.5 hPa NW 3.2 km/h 3.2 km/h 94% 0.0 mm 0 W/m2
05:38 10.8 °C 9.9 °C 989.5 hPa Calm   3.2 km/h 94% 0.0 mm 0 W/m2
05:43 10.8 °C 9.9 °C 989.2 hPa Calm   3.2 km/h 94% 0.2 mm 0 W/m2
05:48 10.7 °C 9.8 °C 989.5 hPa West 1.4 km/h 12.9 km/h 94% 0.2 mm 0 W/m2
05:53 10.7 °C 9.8 °C 989.5 hPa West 3.2 km/h 4.8 km/h 94% 0.2 mm 0 W/m2
05:58 10.6 °C 9.7 °C 989.5 hPa NW 3.2 km/h 12.9 km/h 94% 0.2 mm 0 W/m2
06:03 10.6 °C 9.7 °C 989.2 hPa WNW 3.2 km/h 4.8 km/h 94% 0.5 mm 0 W/m2
06:08 10.5 °C 9.6 °C 989.5 hPa WNW 1.4 km/h 4.8 km/h 94% 0.5 mm 0 W/m2
06:13 10.4 °C 9.5 °C 989.2 hPa NW 6.4 km/h 6.4 km/h 94% 0.5 mm 0 W/m2
06:18 10.4 °C 9.5 °C 989.2 hPa West 3.2 km/h 12.9 km/h 94% 0.5 mm 0 W/m2
06:23 10.3 °C 9.4 °C 989.2 hPa NW 3.2 km/h 6.4 km/h 94% 0.8 mm 0 W/m2
06:28 10.3 °C 9.4 °C 989.2 hPa West 4.7 km/h 12.9 km/h 94% 0.8 mm 0 W/m2
06:33 10.3 °C 9.4 °C 988.8 hPa NW 4.7 km/h 4.8 km/h 94% 1.0 mm 0 W/m2
06:38 10.3 °C 9.4 °C 988.8 hPa Calm   9.7 km/h 94% 1.0 mm 0 W/m2
06:43 10.2 °C 9.3 °C 988.5 hPa WNW 1.4 km/h 4.8 km/h 94% 0.8 mm 0 W/m2
06:48 10.2 °C 9.3 °C 988.5 hPa WNW 1.4 km/h 9.7 km/h 94% 0.8 mm 0 W/m2
06:53 10.2 °C 9.3 °C 988.8 hPa WSW 1.4 km/h 6.4 km/h 94% 1.0 mm 0 W/m2
06:58 10.1 °C 9.2 °C 988.8 hPa WNW 3.2 km/h 4.8 km/h 94% 1.0 mm 0 W/m2
07:03 10.1 °C 9.3 °C 989.2 hPa Calm   6.4 km/h 95% 1.0 mm 0 W/m2
07:08 10.1 °C 9.3 °C 989.2 hPa Calm   3.2 km/h 95% 1.3 mm 0 W/m2
07:13 10.1 °C 9.3 °C 989.2 hPa NNE 3.2 km/h 3.2 km/h 95% 1.5 mm 0 W/m2
07:18 10.1 °C 9.3 °C 989.2 hPa Calm   3.2 km/h 95% 1.5 mm 0 W/m2
07:23 10.1 °C 9.3 °C 989.2 hPa WNW 3.2 km/h 8 km/h 95% 1.5 mm 0 W/m2
07:28 10.1 °C 9.3 °C 989.2 hPa NW 1.4 km/h 4.8 km/h 95% 1.8 mm 0 W/m2
07:33 10.1 °C 9.3 °C 989.2 hPa Calm   8 km/h 95% 2.0 mm 0 W/m2
07:38 10.1 °C 9.3 °C 989.2 hPa Calm   3.2 km/h 95% 2.3 mm 0 W/m2
07:43 10 °C 9.2 °C 989.2 hPa ESE 1.4 km/h 4.8 km/h 95% 2.3 mm 7 W/m2
07:48 10 °C 9.2 °C 989.5 hPa Calm   3.2 km/h 95% 2.3 mm 9 W/m2
07:53 10 °C 9.2 °C 989.5 hPa North 1.4 km/h 4.8 km/h 95% 2.3 mm 11 W/m2
07:58 10 °C 9.2 °C 989.8 hPa Calm   3.2 km/h 95% 2.3 mm 11 W/m2
08:03 10 °C 9.2 °C 989.8 hPa Calm   1.6 km/h 95% 2.0 mm 9 W/m2
08:08 10.1 °C 9.3 °C 990.2 hPa NE 1.4 km/h 3.2 km/h 95% 1.8 mm 9 W/m2
08:13 10.1 °C 9.3 °C 989.8 hPa NNE 3.2 km/h 3.2 km/h 95% 1.5 mm 14 W/m2
08:18 10.1 °C 9.3 °C 990.2 hPa Calm     95% 1.5 mm 18 W/m2
08:23 10.1 °C 9.3 °C 990.2 hPa Calm     95% 1.5 mm 14 W/m2
08:28 10.1 °C 9.3 °C 990.5 hPa NNE 3.2 km/h 3.2 km/h 95% 1.3 mm 12 W/m2
08:33 10.1 °C 9.3 °C 990.5 hPa NNW 1.4 km/h 3.2 km/h 95% 0.8 mm 12 W/m2
08:38 10.2 °C 9.4 °C 990.5 hPa North 1.4 km/h 3.2 km/h 95% 0.8 mm 16 W/m2
08:43 10.2 °C 9.4 °C 990.5 hPa Calm   4.8 km/h 95% 0.5 mm 21 W/m2
08:48 10.2 °C 9.4 °C 990.5 hPa Calm   1.6 km/h 95% 0.5 mm 25 W/m2
08:53 10.2 °C 9.4 °C 990.2 hPa Calm   4.8 km/h 95% 0.8 mm 19 W/m2
08:58 10.2 °C 9.4 °C 990.5 hPa Calm   3.2 km/h 95% 0.8 mm 19 W/m2
09:03 10.1 °C 9.3 °C 990.9 hPa East 1.4 km/h 4.8 km/h 95% 0.8 mm 26 W/m2
09:08 10.2 °C 9.4 °C 990.9 hPa Calm   3.2 km/h 95% 0.5 mm 23 W/m2
09:13 10.2 °C 9.4 °C 990.9 hPa Calm   1.6 km/h 95% 0.5 mm 21 W/m2
09:18 10.2 °C 9.4 °C 991.2 hPa Calm   4.8 km/h 95% 0.5 mm 28 W/m2
09:23 10.2 °C 9.4 °C 991.2 hPa Calm     95% 0.5 mm 32 W/m2
09:28 10.2 °C 9.4 °C 990.9 hPa NNE 1.4 km/h 3.2 km/h 95% 0.5 mm 40 W/m2
09:33 10.2 °C 9.4 °C 991.2 hPa Calm   1.6 km/h 95% 0.5 mm 35 W/m2
09:38 10.3 °C 9.5 °C 991.2 hPa NE 3.2 km/h 3.2 km/h 95% 0.5 mm 35 W/m2
09:43 10.3 °C 9.5 °C 990.9 hPa NE 1.4 km/h 1.6 km/h 95% 0.5 mm 40 W/m2
09:48 10.3 °C 9.5 °C 990.9 hPa Calm   3.2 km/h 95% 0.8 mm 62 W/m2
09:54 10.3 °C 9.5 °C 990.9 hPa Calm     95% 0.5 mm 70 W/m2
09:59 10.3 °C 9.5 °C 991.2 hPa NW 1.4 km/h 3.2 km/h 95% 0.5 mm 42 W/m2
10:04 10.3 °C 9.5 °C 991.5 hPa NE 3.2 km/h 3.2 km/h 95% 0.5 mm 53 W/m2
10:09 10.3 °C 9.5 °C 991.2 hPa NNE 1.4 km/h 4.8 km/h 95% 0.8 mm 84 W/m2
10:14 10.4 °C 9.6 °C 990.9 hPa North 3.2 km/h 3.2 km/h 95% 0.8 mm 105 W/m2
10:19 10.4 °C 9.6 °C 991.2 hPa Calm   1.6 km/h 95% 0.8 mm 97 W/m2
10:24 10.4 °C 9.6 °C 991.2 hPa Calm   4.8 km/h 95% 0.5 mm 116 W/m2
10:29 10.6 °C 9.8 °C 991.2 hPa Calm   3.2 km/h 95% 0.5 mm 97 W/m2
10:34 10.6 °C 9.7 °C 991.2 hPa WNW 1.4 km/h 4.8 km/h 94% 0.5 mm 95 W/m2
10:39 10.6 °C 9.7 °C 991.5 hPa Calm   4.8 km/h 94% 0.5 mm 79 W/m2
10:44 10.7 °C 9.8 °C 991.5 hPa North 3.2 km/h 4.8 km/h 94% 0.5 mm 91 W/m2
10:49 10.7 °C 9.8 °C 991.9 hPa ENE 3.2 km/h 4.8 km/h 94% 0.2 mm 74 W/m2
10:54 10.7 °C 9.8 °C 992.5 hPa NNW 4.7 km/h 6.4 km/h 94% 0.2 mm 62 W/m2
10:59 10.7 °C 9.6 °C 992.2 hPa East 1.4 km/h 8 km/h 93% 0.2 mm 90 W/m2
11:04 10.7 °C 9.6 °C 992.2 hPa NE 3.2 km/h 4.8 km/h 93% 0.2 mm 86 W/m2
11:09 10.7 °C 9.6 °C 992.2 hPa NNE 1.4 km/h 8 km/h 93% 0.0 mm 77 W/m2
11:14 10.7 °C 9.6 °C 991.9 hPa North 3.2 km/h 3.2 km/h 93% 0.0 mm 74 W/m2
11:19 10.7 °C 9.6 °C 991.9 hPa NE 1.4 km/h 4.8 km/h 93% 0.2 mm 69 W/m2
11:24 10.7 °C 9.6 °C 992.2 hPa Calm   3.2 km/h 93% 0.2 mm 81 W/m2
11:29 10.6 °C 9.5 °C 991.9 hPa Calm   4.8 km/h 93% 0.2 mm 95 W/m2
11:34 10.6 °C 9.4 °C 991.9 hPa NNE 3.2 km/h 3.2 km/h 92% 0.2 mm 111 W/m2
11:39 10.5 °C 9.3 °C 991.9 hPa ESE 1.4 km/h 4.8 km/h 92% 0.2 mm 125 W/m2
11:44 10.5 °C 9.3 °C 991.9 hPa NE 1.4 km/h 4.8 km/h 92% 0.2 mm 105 W/m2
11:49 10.5 °C 9.3 °C 991.9 hPa ENE 1.4 km/h 8 km/h 92% 0.2 mm 125 W/m2
11:54 10.5 °C 9.3 °C 991.9 hPa Calm   1.6 km/h 92% 0.2 mm 104 W/m2
11:59 10.5 °C 9.3 °C 991.9 hPa North 1.4 km/h 8 km/h 92% 0.2 mm 109 W/m2
12:04 10.5 °C 9.3 °C 991.5 hPa NE 4.7 km/h 6.4 km/h 92% 0.2 mm 132 W/m2
12:09 10.6 °C 9.5 °C 991.5 hPa Calm   6.4 km/h 93% 0.2 mm 120 W/m2
12:14 10.6 °C 9.4 °C 991.9 hPa ENE 1.4 km/h 4.8 km/h 92% 0.2 mm 155 W/m2
12:19 10.6 °C 9.4 °C 992.2 hPa NE 1.4 km/h 6.4 km/h 92% 0.0 mm 116 W/m2
12:24 10.6 °C 9.4 °C 992.2 hPa East 3.2 km/h 8 km/h 92% 0.0 mm 95 W/m2
12:29 10.4 °C 9.2 °C 992.2 hPa Calm   6.4 km/h 92% 0.0 mm 77 W/m2
12:34 10.4 °C 9.2 °C 992.5 hPa NE 4.7 km/h 6.4 km/h 92% 0.0 mm 83 W/m2
12:39 10.4 °C 9.2 °C 992.5 hPa NE 3.2 km/h 8 km/h 92% 0.2 mm 97 W/m2
12:44 10.3 °C 9.2 °C 992.5 hPa East 7.9 km/h 8 km/h 93% 0.2 mm 62 W/m2
12:49 10.3 °C 9.2 °C 992.5 hPa ENE 3.2 km/h 6.4 km/h 93% 0.2 mm 42 W/m2
12:54 10.3 °C 9.2 °C 992.5 hPa East 1.4 km/h 4.8 km/h 93% 0.2 mm 44 W/m2
12:59 10.2 °C 9.1 °C 992.2 hPa NNE 3.2 km/h 6.4 km/h 93% 0.2 mm 49 W/m2
13:04 10.2 °C 9.1 °C 992.2 hPa East 1.4 km/h 3.2 km/h 93% 0.5 mm 58 W/m2
13:09 10.1 °C 9 °C 992.2 hPa NE 1.4 km/h 6.4 km/h 93% 0.5 mm 77 W/m2
13:14 10.1 °C 9 °C 992.2 hPa Calm   3.2 km/h 93% 0.5 mm 100 W/m2
13:19 10.1 °C 9 °C 992.2 hPa ESE 3.2 km/h 4.8 km/h 93% 0.5 mm 107 W/m2
13:24 10.1 °C 9 °C 992.2 hPa ENE 4.7 km/h 11.3 km/h 93% 0.5 mm 142 W/m2
13:29 10.2 °C 9.3 °C 992.2 hPa NE 4.7 km/h 14.5 km/h 94% 0.5 mm 220 W/m2
13:34 10.3 °C 9.4 °C 991.9 hPa ESE 11.1 km/h 14.5 km/h 94% 0.5 mm 237 W/m2
13:39 10.4 °C 9.3 °C 991.9 hPa SSE 4.7 km/h 12.9 km/h 93% 0.2 mm 221 W/m2
13:44 10.4 °C 9.3 °C 991.9 hPa NNE 6.4 km/h 6.4 km/h 93% 0.2 mm 285 W/m2
13:49 10.6 °C 9.5 °C 991.9 hPa East 11.1 km/h 14.5 km/h 93% 0.2 mm 267 W/m2
13:54 10.7 °C 9.6 °C 991.9 hPa East 1.4 km/h 8 km/h 93% 0.2 mm 267 W/m2
13:59 10.9 °C 9.7 °C 991.9 hPa NE 1.4 km/h 14.5 km/h 92% 0.2 mm 339 W/m2
14:04 11 °C 9.8 °C 991.5 hPa ENE 4.7 km/h 6.4 km/h 92% 0.0 mm 290 W/m2
14:09 11.3 °C 10 °C 991.5 hPa East 4.7 km/h 6.4 km/h 92% 0.0 mm 192 W/m2
14:14 11.3 °C 9.9 °C 991.5 hPa ENE 3.2 km/h 11.3 km/h 91% 0.0 mm 329 W/m2
14:19 11.5 °C 10.1 °C 991.5 hPa East 1.4 km/h 16.1 km/h 91% 0.0 mm 220 W/m2
14:24 11.6 °C 10 °C 991.5 hPa East 6.4 km/h 11.3 km/h 90% 0.0 mm 229 W/m2
14:29 11.6 °C 9.8 °C 991.5 hPa East 1.4 km/h 11.3 km/h 89% 0.0 mm 121 W/m2
14:34 11.6 °C 9.7 °C 991.5 hPa SE 6.4 km/h 12.9 km/h 88% 0.0 mm 167 W/m2
14:39 11.5 °C 9.7 °C 991.5 hPa ENE 1.4 km/h 6.4 km/h 89% 0.0 mm 139 W/m2
14:44 11.5 °C 9.6 °C 991.5 hPa NE 4.7 km/h 8 km/h 88% 0.0 mm 246 W/m2
14:49 11.6 °C 9.7 °C 991.5 hPa North 6.4 km/h 6.4 km/h 88% 0.0 mm 230 W/m2
14:54 11.7 °C 9.8 °C 991.2 hPa ENE 4.7 km/h 6.4 km/h 88% 0.0 mm 199 W/m2
14:59 11.8 °C 9.7 °C 991.2 hPa East 3.2 km/h 9.7 km/h 87% 0.0 mm 308 W/m2
15:04 12.1 °C 9.8 °C 991.2 hPa ENE 1.4 km/h 11.3 km/h 86% 0.0 mm 207 W/m2
15:09 12.2 °C 9.8 °C 991.2 hPa NW 1.4 km/h 6.4 km/h 85% 0.0 mm 445 W/m2
15:14 12.3 °C 9.7 °C 991.2 hPa Calm   11.3 km/h 84% 0.0 mm 153 W/m2
15:19 12.2 °C 9.4 °C 991.2 hPa WNW 3.2 km/h 4.8 km/h 83% 0.0 mm 111 W/m2
15:24 12.2 °C 9.4 °C 991.2 hPa SW 1.4 km/h 9.7 km/h 83% 0.0 mm 188 W/m2
15:29 12.2 °C 9.4 °C 991.2 hPa NNW 1.4 km/h 6.4 km/h 83% 0.0 mm 148 W/m2
15:34 12.2 °C 9.4 °C 991.2 hPa NW 1.4 km/h 3.2 km/h 83% 0.0 mm 137 W/m2
15:39 12.3 °C 9.5 °C 991.2 hPa ESE 3.2 km/h 9.7 km/h 83% 0.0 mm 123 W/m2
15:44 12.3 °C 9.5 °C 990.9 hPa East 1.4 km/h 4.8 km/h 83% 0.0 mm 121 W/m2
15:49 12.3 °C 9.7 °C 990.9 hPa ENE 4.7 km/h 9.7 km/h 84% 0.0 mm 90 W/m2
15:54 12.3 °C 9.7 °C 990.9 hPa East 4.7 km/h 4.8 km/h 84% 0.0 mm 69 W/m2
15:59 12.2 °C 9.6 °C 990.9 hPa East 4.7 km/h 4.8 km/h 84% 0.0 mm 58 W/m2
16:04 12.1 °C 9.5 °C 990.9 hPa Calm   4.8 km/h 84% 0.0 mm 46 W/m2
16:09 12.1 °C 9.7 °C 990.9 hPa ENE 1.4 km/h 3.2 km/h 85% 0.0 mm 47 W/m2
16:14 12.1 °C 9.8 °C 990.5 hPa Calm   3.2 km/h 86% 0.0 mm 67 W/m2
16:19 12.1 °C 10 °C 990.5 hPa Calm   1.6 km/h 87% 0.0 mm 62 W/m2
16:24 12 °C 9.7 °C 990.5 hPa Calm     86% 0.0 mm 56 W/m2
16:29 11.9 °C 9.8 °C 990.5 hPa NE 1.4 km/h 3.2 km/h 87% 0.0 mm 47 W/m2
16:34 11.9 °C 9.6 °C 990.5 hPa East 1.4 km/h 4.8 km/h 86% 0.0 mm 40 W/m2
16:39 11.9 °C 10 °C 990.5 hPa NE 1.4 km/h 1.6 km/h 88% 0.0 mm 37 W/m2
16:44 11.8 °C 9.9 °C 990.5 hPa SSE 3.2 km/h 6.4 km/h 88% 0.0 mm 37 W/m2
16:49 11.7 °C 9.8 °C 990.2 hPa Calm   4.8 km/h 88% 0.0 mm 51 W/m2
16:54 11.7 °C 9.8 °C 990.5 hPa East 1.4 km/h 3.2 km/h 88% 0.0 mm 47 W/m2
16:59 11.7 °C 9.6 °C 990.5 hPa Calm     87% 0.0 mm 54 W/m2
17:05 11.8 °C 9.9 °C 990.5 hPa Calm   1.6 km/h 88% 0.0 mm 40 W/m2
17:10 11.8 °C 10 °C 990.5 hPa Calm     89% 0.0 mm 26 W/m2
17:15 11.7 °C 10.1 °C 990.5 hPa Calm     90% 0.0 mm 19 W/m2
17:20 11.7 °C 10.3 °C 990.5 hPa Calm     91% 0.0 mm 16 W/m2
17:25 11.6 °C 10.2 °C 990.5 hPa Calm     91% 0.0 mm 16 W/m2
17:30 11.4 °C 10 °C 990.2 hPa Calm   1.6 km/h 91% 0.0 mm 19 W/m2
17:35 11.4 °C 10.1 °C 990.2 hPa Calm     92% 0.0 mm 14 W/m2
17:40 11.4 °C 10.3 °C 990.2 hPa Calm   1.6 km/h 93% 0.0 mm 19 W/m2
17:45 11.3 °C 10.2 °C 990.2 hPa Calm     93% 0.0 mm 19 W/m2
17:51 11.3 °C 10.2 °C 990.2 hPa Calm     93% 0.0 mm 19 W/m2
17:56 11.2 °C 10.3 °C 990.2 hPa Calm     94% 0.0 mm 21 W/m2
18:01 11.2 °C 10.3 °C 990.2 hPa Calm     94% 0.0 mm 16 W/m2
18:06 11.2 °C 10.3 °C 989.8 hPa Calm     94% 0.0 mm 12 W/m2
18:11 11.2 °C 10.3 °C 989.8 hPa Calm     94% 0.0 mm 12 W/m2
18:16 11.1 °C 10.2 °C 989.8 hPa Calm     94% 0.0 mm 12 W/m2
18:21 11.1 °C 10.2 °C 989.8 hPa Calm     94% 0.0 mm 12 W/m2
18:26 11.1 °C 10.2 °C 989.8 hPa Calm     94% 0.0 mm 7 W/m2
18:31 11 °C 10.1 °C 989.8 hPa Calm     94% 0.0 mm 5 W/m2
18:36 10.9 °C 10 °C 989.8 hPa Calm     94% 0.0 mm 0 W/m2
18:41 10.9 °C 10 °C 989.5 hPa Calm     94% 0.0 mm 0 W/m2
18:46 10.9 °C 10.1 °C 989.5 hPa Calm     95% 0.0 mm 0 W/m2
18:51 10.9 °C 10.1 °C 989.5 hPa Calm     95% 0.0 mm 0 W/m2
18:56 10.9 °C 10.1 °C 989.5 hPa Calm     95% 0.0 mm 0 W/m2
19:01 10.9 °C 10.1 °C 989.5 hPa Calm     95% 0.0 mm 0 W/m2
19:06 10.8 °C 10 °C 989.5 hPa Calm   1.6 km/h 95% 0.0 mm 0 W/m2
19:11 10.8 °C 10 °C 989.2 hPa Calm     95% 0.0 mm 0 W/m2
19:16 10.8 °C 10 °C 989.2 hPa Calm   1.6 km/h 95% 0.0 mm 0 W/m2
19:21 10.8 °C 10 °C 989.2 hPa Calm     95% 0.0 mm 0 W/m2
19:26 10.8 °C 10 °C 989.2 hPa Calm   1.6 km/h 95% 0.0 mm 0 W/m2
19:31 10.8 °C 10 °C 989.2 hPa ENE 1.4 km/h 3.2 km/h 95% 0.0 mm 0 W/m2
19:36 10.8 °C 10 °C 989.2 hPa ENE 6.4 km/h 8 km/h 95% 0.0 mm 0 W/m2
19:41 11.6 °C 10.5 °C 989.5 hPa ENE 7.9 km/h 16.1 km/h 93% 0.0 mm 0 W/m2
19:46 12.2 °C 10.3 °C 989.5 hPa ENE 4.7 km/h 19.3 km/h 88% 0.0 mm 0 W/m2
19:51 12.3 °C 10 °C 989.2 hPa SE 3.2 km/h 19.3 km/h 86% 0.0 mm 0 W/m2
19:56 12.2 °C 9.9 °C 989.5 hPa ENE 4.7 km/h 8 km/h 86% 0.2 mm 0 W/m2
20:01 12.1 °C 10 °C 989.2 hPa ESE 4.7 km/h 9.7 km/h 87% 0.2 mm 0 W/m2
20:06 11.9 °C 10 °C 989.2 hPa East 4.7 km/h 19.3 km/h 88% 0.5 mm 0 W/m2
20:11 11.8 °C 10 °C 989.2 hPa ENE 6.4 km/h 8 km/h 89% 0.5 mm 0 W/m2
20:16 11.7 °C 9.9 °C 989.2 hPa East 11.1 km/h 12.9 km/h 89% 0.5 mm 0 W/m2
20:21 11.6 °C 10 °C 989.2 hPa East 1.4 km/h 6.4 km/h 90% 0.8 mm 0 W/m2
20:26 11.6 °C 10 °C 989.2 hPa ESE 3.2 km/h 4.8 km/h 90% 0.8 mm 0 W/m2
20:31 11.4 °C 10 °C 989.2 hPa East 3.2 km/h 4.8 km/h 91% 1.3 mm 0 W/m2
20:36 11.3 °C 10 °C 989.2 hPa East 3.2 km/h 11.3 km/h 92% 1.5 mm 0 W/m2
20:41 11.2 °C 9.9 °C 989.2 hPa ENE 3.2 km/h 8 km/h 92% 1.8 mm 0 W/m2
20:46 11.2 °C 10.1 °C 989.2 hPa SE 6.4 km/h 9.7 km/h 93% 1.8 mm 0 W/m2
20:51 11.1 °C 10 °C 989.2 hPa ENE 1.4 km/h 8 km/h 93% 1.8 mm 0 W/m2
20:56 11.1 °C 10 °C 989.2 hPa East 4.7 km/h 14.5 km/h 93% 1.5 mm 0 W/m2
21:01 11.1 °C 10 °C 989.2 hPa ESE 4.7 km/h 9.7 km/h 93% 1.5 mm 0 W/m2
21:07 11.1 °C 10 °C 989.2 hPa ENE 3.2 km/h 14.5 km/h 93% 1.5 mm 0 W/m2
21:12 11.2 °C 10.1 °C 989.2 hPa ENE 7.9 km/h 17.7 km/h 93% 1.3 mm 0 W/m2
21:17 11.2 °C 10.1 °C 989.2 hPa NNW 4.7 km/h 8 km/h 93% 1.3 mm 0 W/m2
21:22 11.2 °C 10.1 °C 988.8 hPa East 4.7 km/h 17.7 km/h 93% 1.0 mm 0 W/m2
21:27 11.3 °C 10 °C 988.8 hPa ENE 4.7 km/h 14.5 km/h 92% 0.8 mm 0 W/m2
21:32 11.3 °C 10 °C 988.8 hPa NE 3.2 km/h 17.7 km/h 92% 0.5 mm 0 W/m2
21:37 11.3 °C 10 °C 988.8 hPa NE 3.2 km/h 9.7 km/h 92% 0.2 mm 0 W/m2
21:42 11.3 °C 10 °C 988.8 hPa ESE 3.2 km/h 14.5 km/h 92% 0.0 mm 0 W/m2
21:47 11.3 °C 10 °C 988.8 hPa NE 3.2 km/h 6.4 km/h 92% 0.0 mm 0 W/m2
21:52 11.3 °C 10 °C 988.8 hPa North 1.4 km/h 14.5 km/h 92% 0.0 mm 0 W/m2
21:57 11.3 °C 10 °C 988.8 hPa NNW 3.2 km/h 4.8 km/h 92% 0.0 mm 0 W/m2
22:02 11.3 °C 10 °C 988.8 hPa ENE 1.4 km/h 4.8 km/h 92% 0.0 mm 0 W/m2
22:07 11.2 °C 9.9 °C 988.5 hPa Calm   3.2 km/h 92% 0.0 mm 0 W/m2
22:12 11.2 °C 9.9 °C 988.5 hPa ENE 6.4 km/h 6.4 km/h 92% 0.0 mm 0 W/m2
22:17 11.2 °C 9.9 °C 988.5 hPa Calm   1.6 km/h 92% 0.0 mm 0 W/m2
22:22 11.1 °C 10 °C 988.5 hPa Calm   1.6 km/h 93% 0.0 mm 0 W/m2
22:27 11.1 °C 10 °C 988.5 hPa East 6.4 km/h 6.4 km/h 93% 0.0 mm 0 W/m2
22:32 11.1 °C 10 °C 988.5 hPa ESE 1.4 km/h 4.8 km/h 93% 0.0 mm 0 W/m2
22:37 11.1 °C 10 °C 988.5 hPa Calm   4.8 km/h 93% 0.0 mm 0 W/m2
22:42 11.1 °C 10 °C 988.5 hPa NNE 4.7 km/h 4.8 km/h 93% 0.0 mm 0 W/m2
22:47 11.1 °C 10 °C 988.5 hPa ENE 9.7 km/h 12.9 km/h 93% 0.0 mm 0 W/m2
22:52 11.1 °C 9.8 °C 988.1 hPa SE 7.9 km/h 14.5 km/h 92% 0.2 mm 0 W/m2
22:57 11.1 °C 9.8 °C 988.1 hPa ENE 4.7 km/h 8 km/h 92% 0.5 mm 0 W/m2
23:02 11 °C 9.8 °C 988.1 hPa ENE 4.7 km/h 12.9 km/h 92% 0.5 mm 0 W/m2
23:07 10.9 °C 9.8 °C 988.1 hPa NE 3.2 km/h 12.9 km/h 93% 0.5 mm 0 W/m2
23:12 10.8 °C 9.7 °C 987.8 hPa NE 9.7 km/h 9.7 km/h 93% 0.5 mm 0 W/m2
23:17 10.8 °C 9.7 °C 987.8 hPa ENE 3.2 km/h 12.9 km/h 93% 0.8 mm 0 W/m2
23:22 10.7 °C 9.6 °C 987.5 hPa NE 6.4 km/h 9.7 km/h 93% 0.8 mm 0 W/m2
23:27 10.7 °C 9.6 °C 987.5 hPa SE 4.7 km/h 16.1 km/h 93% 0.8 mm 0 W/m2
23:32 10.6 °C 9.5 °C 987.5 hPa NE 7.9 km/h 11.3 km/h 93% 1.0 mm 0 W/m2
23:37 10.5 °C 9.4 °C 987.5 hPa NNE 3.2 km/h 16.1 km/h 93% 1.0 mm 0 W/m2
23:42 10.4 °C 9.3 °C 987.5 hPa NE 6.4 km/h 11.3 km/h 93% 1.3 mm 0 W/m2
23:47 10.4 °C 9.3 °C 987.5 hPa ESE 4.7 km/h 17.7 km/h 93% 1.5 mm 0 W/m2
23:52 10.4 °C 9.3 °C 987.1 hPa ESE 3.2 km/h 17.7 km/h 93% 1.3 mm 0 W/m2
23:57 10.3 °C 9.2 °C 987.1 hPa ESE 13 km/h 20.9 km/h 93% 1.3 mm 0 W/m2
Juneau County Weather
Compliments of Weather Underground - 4 mb